Time;durP1;ratioP1;P1;durP2;ratioP2;P2;SDS_P1;SDS_P2;PMS_P1;PMS_P2;Temp;Humidity;BMP_temperature;BMP_pressure;BME280_temperature;BME280_humidity;BME280_pressure;Samples;Min_cycle;Max_cycle;Signal;HPM_P1;HPM_P2
2022/10/15 00:01:07;;;;;;;0.43;0.43;;;;;;;13.22;93.74;100740.09;2076710;28;20104;-73
2022/10/15 00:02:09;;;;;;;0.47;0.47;;;;;;;13.22;93.40;100739.34;2069610;28;20591;-72
2022/10/15 00:03:12;;;;;;;0.43;0.43;;;;;;;13.24;93.74;100745.97;2064541;28;20062;-73
2022/10/15 00:04:13;;;;;;;0.50;0.50;;;;;;;13.25;93.40;100744.84;2080512;28;20150;-73
2022/10/15 00:05:16;;;;;;;0.50;0.50;;;;;;;13.26;93.95;100749.09;2080007;28;20049;-73
2022/10/15 00:06:20;;;;;;;0.40;0.40;;;;;;;13.28;93.32;100746.03;2080532;28;20338;-73
2022/10/15 00:07:23;;;;;;;0.47;0.47;;;;;;;13.27;93.27;100745.22;2079575;28;20056;-72
2022/10/15 00:08:25;;;;;;;0.50;0.50;;;;;;;13.27;93.59;100744.47;2071551;28;20437;-72
2022/10/15 00:09:28;;;;;;;0.40;0.40;;;;;;;13.26;93.82;100746.38;2059743;28;21594;-73
2022/10/15 00:10:31;;;;;;;0.43;0.43;;;;;;;13.27;93.65;100739.81;2070233;28;20053;-73
2022/10/15 00:11:34;;;;;;;0.47;0.47;;;;;;;13.27;93.61;100739.03;2077542;28;20057;-73
2022/10/15 00:12:36;;;;;;;0.50;0.50;;;;;;;13.25;93.84;100742.13;2079159;28;20417;-73
2022/10/15 00:13:39;;;;;;;0.43;0.43;;;;;;;13.25;93.47;100733.97;2075342;28;20058;-72
2022/10/15 00:14:41;;;;;;;0.43;0.43;;;;;;;13.24;94.29;100739.75;2073502;28;20413;-73
2022/10/15 00:15:44;;;;;;;0.50;0.50;;;;;;;13.24;93.74;100734.34;2073378;28;20060;-73
2022/10/15 00:16:46;;;;;;;0.40;0.40;;;;;;;13.23;93.80;100733.56;2078749;28;20065;-73
2022/10/15 00:17:48;;;;;;;0.40;0.40;;;;;;;13.24;94.01;100729.69;2080496;28;20452;-73
2022/10/15 00:18:53;;;;;;;0.50;0.50;;;;;;;13.25;93.72;100736.69;2078334;28;20068;-72
2022/10/15 00:19:56;;;;;;;0.40;0.40;;;;;;;13.24;93.63;100732.41;2071440;28;20505;-73
2022/10/15 00:20:58;;;;;;;0.40;0.40;;;;;;;13.25;94.04;100736.69;2071952;28;20053;-73
2022/10/15 00:22:01;;;;;;;0.50;0.50;;;;;;;13.26;93.58;100732.03;2074896;28;20813;-73
2022/10/15 00:23:03;;;;;;;0.50;0.50;;;;;;;13.24;93.67;100729.69;2064175;28;20496;-73
2022/10/15 00:24:07;;;;;;;0.47;0.47;;;;;;;13.26;93.62;100727.41;2071592;28;20061;-72
2022/10/15 00:25:09;;;;;;;0.43;0.43;;;;;;;13.26;93.83;100726.63;2079807;28;20050;-73
2022/10/15 00:26:16;;;;;;;0.40;0.40;;;;;;;13.26;94.06;100727.41;2076767;28;20081;-72
2022/10/15 00:27:17;;;;;;;0.40;0.40;;;;;;;13.24;94.04;100721.56;2077539;28;20662;-73
2022/10/15 00:28:20;;;;;;;0.40;0.40;;;;;;;13.25;94.01;100731.28;2075262;28;20057;-73
2022/10/15 00:29:24;;;;;;;0.40;0.40;;;;;;;13.25;93.99;100730.47;2081188;28;20539;-72
2022/10/15 00:30:28;;;;;;;0.50;0.50;;;;;;;13.22;93.96;100726.53;2073210;28;20057;-73
2022/10/15 00:31:32;;;;;;;0.40;0.40;;;;;;;13.26;93.85;100737.47;2075084;28;20054;-73
2022/10/15 00:32:34;;;;;;;0.40;0.40;;;;;;;13.25;93.72;100741.31;2078958;28;20045;-70
2022/10/15 00:33:41;;;;;;;0.40;0.40;;;;;;;13.24;94.47;100732.41;2070470;28;20056;-72
2022/10/15 00:34:43;;;;;;;0.40;0.40;;;;;;;13.25;94.35;100731.28;2066904;28;20189;-72
2022/10/15 00:35:46;;;;;;;0.40;0.40;;;;;;;13.24;93.76;100732.41;2073300;28;20050;-72
2022/10/15 00:36:50;;;;;;;0.40;0.40;;;;;;;13.25;94.16;100727.78;2064646;28;20058;-72
2022/10/15 00:37:52;;;;;;;0.40;0.40;;;;;;;13.24;94.08;100735.09;2069893;28;20723;-72
2022/10/15 00:38:55;;;;;;;0.47;0.47;;;;;;;13.25;93.90;100731.28;2081439;28;20106;-72
2022/10/15 00:39:57;;;;;;;0.50;0.50;;;;;;;13.25;93.78;100731.28;2073563;28;20803;-72
2022/10/15 00:41:00;;;;;;;0.45;0.45;;;;;;;13.27;93.67;100733.63;2063713;28;20062;-72
2022/10/15 00:42:04;;;;;;;0.45;0.45;;;;;;;13.26;93.95;100730.13;2069271;28;20059;-72
2022/10/15 00:43:09;;;;;;;0.40;0.40;;;;;;;13.26;94.35;100724.69;2081042;28;20053;-72
2022/10/15 00:44:49;;;;;;;0.50;0.50;;;;;;;13.21;94.26;100724.19;2084110;28;20496;-72
2022/10/15 00:45:51;;;;;;;0.50;0.50;;;;;;;13.21;94.23;100725.00;2075099;28;20046;-73
2022/10/15 00:46:57;;;;;;;0.40;0.40;;;;;;;13.25;93.64;100725.06;2072943;28;20678;-73
2022/10/15 00:47:59;;;;;;;0.40;0.40;;;;;;;13.25;93.80;100727.78;2078747;28;20106;-72
2022/10/15 00:49:12;;;;;;;0.45;0.45;;;;;;;13.25;93.83;100733.97;2085925;28;20520;-71
2022/10/15 00:50:18;;;;;;;0.40;0.40;;;;;;;13.25;94.28;100730.47;2083012;28;20052;-71
2022/10/15 00:51:21;;;;;;;0.50;0.50;;;;;;;13.25;94.10;100727.78;2079503;28;20057;-71
2022/10/15 00:52:29;;;;;;;0.40;0.40;;;;;;;13.24;93.64;100724.25;2084712;28;20053;-71
2022/10/15 00:53:34;;;;;;;0.50;0.50;;;;;;;13.23;94.16;100733.56;2080000;28;20122;-72
2022/10/15 00:54:41;;;;;;;0.40;0.40;;;;;;;13.23;93.55;100725.41;2079612;28;20049;-72
2022/10/15 00:55:44;;;;;;;0.40;0.40;;;;;;;13.22;94.26;100725.78;2069125;28;20133;-72
2022/10/15 00:56:49;;;;;;;0.40;0.40;;;;;;;13.22;93.74;100728.50;2066046;28;20050;-71
2022/10/15 00:57:54;;;;;;;0.50;0.50;;;;;;;13.20;93.81;100720.72;2079846;28;20057;-72
2022/10/15 00:58:56;;;;;;;0.40;0.40;;;;;;;13.20;93.96;100723.44;2079426;28;20045;-72
2022/10/15 01:00:04;;;;;;;0.50;0.50;;;;;;;13.19;94.29;100724.56;2080329;28;20057;-71
2022/10/15 01:01:06;;;;;;;0.40;0.40;;;;;;;13.18;93.93;100731.13;2078769;28;20077;-72
2022/10/15 01:02:10;;;;;;;0.50;0.50;;;;;;;13.18;94.31;100725.72;2078679;28;20133;-72
2022/10/15 01:03:12;;;;;;;0.40;0.40;;;;;;;13.19;93.76;100724.56;2075137;28;20525;-71
2022/10/15 01:04:17;;;;;;;0.50;0.50;;;;;;;13.21;93.95;100724.19;2078174;28;20056;-72
2022/10/15 01:05:20;;;;;;;0.40;0.40;;;;;;;13.20;94.22;100728.84;2071192;28;20064;-72
2022/10/15 01:06:24;;;;;;;0.35;0.35;;;;;;;13.21;94.46;100730.41;2070805;28;20053;-73
2022/10/15 01:07:26;;;;;;;0.40;0.40;;;;;;;13.22;94.18;100728.50;2073240;28;20049;-72
2022/10/15 01:08:29;;;;;;;0.40;0.40;;;;;;;13.24;94.02;100723.50;2074096;28;20091;-72
2022/10/15 01:09:31;;;;;;;0.50;0.50;;;;;;;13.23;93.80;100722.72;2075199;28;20061;-72
2022/10/15 01:10:44;;;;;;;0.40;0.40;;;;;;;13.23;94.14;100725.41;2079795;28;20056;-72
2022/10/15 01:11:49;;;;;;;0.40;0.40;;;;;;;13.25;94.41;100727.78;2079883;28;20779;-71
2022/10/15 01:13:03;;;;;;;0.43;0.43;;;;;;;13.24;94.37;100720.78;2072752;28;20054;-72
2022/10/15 01:14:18;;;;;;;0.45;0.45;;;;;;;13.21;94.22;100716.06;2078979;28;20053;-73
2022/10/15 01:15:26;;;;;;;0.50;0.50;;;;;;;13.21;94.29;100719.56;2076102;28;20061;-72
2022/10/15 01:16:35;;;;;;;0.43;0.43;;;;;;;13.22;94.45;100713.00;2074950;28;20054;-72
2022/10/15 01:17:43;;;;;;;0.40;0.40;;;;;;;13.24;93.95;100715.38;2074410;28;20057;-72
2022/10/15 01:18:49;;;;;;;0.50;0.50;;;;;;;13.23;93.97;100716.50;2074237;28;20049;-71
2022/10/15 01:20:29;;;;;;;0.40;0.40;;;;;;;13.18;94.08;100714.88;2073769;28;20125;-72
2022/10/15 01:21:44;;;;;;;0.40;0.40;;;;;;;13.18;94.16;100704.03;2055183;28;20138;-72
2022/10/15 01:23:09;;;;;;;0.43;0.43;;;;;;;13.19;94.26;100704.81;2064152;28;20137;-72
2022/10/15 01:24:45;;;;;;;0.50;0.50;;;;;;;13.16;94.18;100708.25;2050826;28;20411;-72
2022/10/15 01:26:00;;;;;;;0.50;0.50;;;;;;;13.15;94.19;100702.03;2061410;28;20088;-72
2022/10/15 01:27:32;;;;;;;0.50;0.50;;;;;;;13.14;93.99;100703.19;2078607;28;20045;-72
2022/10/15 01:28:46;;;;;;;0.40;0.40;;;;;;;13.13;94.94;100700.81;2078866;28;20054;-72
2022/10/15 01:30:24;;;;;;;0.50;0.50;;;;;;;13.11;94.28;100706.59;2076484;28;20094;-72
2022/10/15 01:31:36;;;;;;;0.50;0.50;;;;;;;13.11;94.14;100701.19;2075594;28;20053;-72
2022/10/15 01:32:46;;;;;;;0.40;0.40;;;;;;;13.12;94.30;100700.06;2080702;28;20168;-72
2022/10/15 01:34:00;;;;;;;0.40;0.40;;;;;;;13.13;94.18;100698.91;2072304;28;20053;-72
2022/10/15 01:35:11;;;;;;;0.45;0.45;;;;;;;13.14;94.62;100697.78;2078404;28;20480;-72
2022/10/15 01:36:20;;;;;;;0.50;0.50;;;;;;;13.14;94.29;100692.34;2076795;28;20096;-72
2022/10/15 01:37:35;;;;;;;0.40;0.40;;;;;;;13.14;94.24;100697.78;2067728;28;20054;-71
2022/10/15 01:38:49;;;;;;;0.40;0.40;;;;;;;13.12;94.59;100694.63;2070551;28;20119;-73
2022/10/15 01:39:56;;;;;;;0.50;0.50;;;;;;;13.14;94.61;100697.78;2074708;28;20505;-73
2022/10/15 01:41:08;;;;;;;0.50;0.50;;;;;;;13.13;94.48;100693.47;2072566;28;20046;-71
2022/10/15 01:42:16;;;;;;;0.40;0.40;;;;;;;13.14;94.17;100696.97;2063106;28;20066;-71
2022/10/15 01:43:26;;;;;;;0.40;0.40;;;;;;;13.14;94.71;100691.56;2065339;28;20141;-72
2022/10/15 01:44:53;;;;;;;0.50;0.50;;;;;;;13.12;94.19;100693.84;2069359;28;20054;-72
2022/10/15 01:46:24;;;;;;;0.40;0.40;;;;;;;13.09;94.27;100692.66;2059949;28;20054;-72
2022/10/15 01:47:45;;;;;;;0.40;0.40;;;;;;;13.09;94.40;100689.94;2066417;28;20137;-72
2022/10/15 01:48:52;;;;;;;0.40;0.40;;;;;;;13.10;94.84;100683.34;2072344;28;20057;-72
2022/10/15 01:49:55;;;;;;;0.47;0.47;;;;;;;13.11;94.63;100687.63;2078955;28;20500;-72
2022/10/15 01:51:01;;;;;;;0.40;0.40;;;;;;;13.13;94.58;100690.75;2068011;28;20061;-72
2022/10/15 01:52:08;;;;;;;0.40;0.40;;;;;;;13.12;94.47;100686.50;2066788;28;20534;-72
2022/10/15 01:53:15;;;;;;;0.50;0.50;;;;;;;13.14;94.56;100686.13;2076364;28;20508;-72
2022/10/15 01:54:19;;;;;;;0.50;0.50;;;;;;;13.14;94.17;100691.56;2067837;28;20054;-72
2022/10/15 01:55:24;;;;;;;0.50;0.50;;;;;;;13.14;94.44;100692.34;2063518;28;20050;-72
2022/10/15 01:56:28;;;;;;;0.50;0.50;;;;;;;13.14;94.28;100692.34;2070962;28;20120;-73
2022/10/15 01:57:33;;;;;;;0.50;0.50;;;;;;;13.14;94.66;100695.06;2077207;28;20103;-72
2022/10/15 01:58:39;;;;;;;0.50;0.50;;;;;;;13.15;94.69;100693.13;2073266;28;20128;-72
2022/10/15 01:59:44;;;;;;;0.40;0.40;;;;;;;13.15;94.14;100688.47;2068843;28;20559;-72
2022/10/15 02:00:46;;;;;;;0.50;0.50;;;;;;;13.16;94.33;100690.03;2075236;28;20064;-72
2022/10/15 02:01:49;;;;;;;0.50;0.50;;;;;;;13.14;94.31;100692.34;2072474;28;20124;-72
2022/10/15 02:02:58;;;;;;;0.40;0.40;;;;;;;13.14;94.46;100691.56;2069702;28;20057;-72
2022/10/15 02:04:01;;;;;;;0.47;0.47;;;;;;;13.13;94.30;100688.06;2070792;28;20046;-72
2022/10/15 02:05:06;;;;;;;0.50;0.50;;;;;;;13.15;94.54;100696.63;2075864;28;20425;-72
2022/10/15 02:06:13;;;;;;;0.50;0.50;;;;;;;13.15;94.23;100679.56;2076974;28;20064;-72
2022/10/15 02:07:24;;;;;;;0.47;0.47;;;;;;;13.14;94.47;100678.78;2078870;28;20057;-72
2022/10/15 02:08:38;;;;;;;0.50;0.50;;;;;;;13.14;94.42;100686.13;2072722;28;20057;-72
2022/10/15 02:09:48;;;;;;;0.50;0.50;;;;;;;13.13;94.05;100679.91;2072537;28;20200;-72
2022/10/15 02:10:55;;;;;;;0.50;0.50;;;;;;;13.12;94.71;100672.94;2070859;28;20055;-72
2022/10/15 02:12:09;;;;;;;0.50;0.50;;;;;;;13.10;94.25;100686.06;2060528;28;20051;-72
2022/10/15 02:13:21;;;;;;;0.40;0.40;;;;;;;13.10;94.28;100675.22;2067292;28;20052;-72
2022/10/15 02:14:28;;;;;;;0.50;0.50;;;;;;;13.09;94.23;100673.66;2072378;28;20410;-72
2022/10/15 02:15:37;;;;;;;0.50;0.50;;;;;;;13.08;93.84;100682.16;2073231;28;20041;-72
2022/10/15 02:16:47;;;;;;;0.50;0.50;;;;;;;13.07;94.16;100675.16;2068638;28;20455;-71
2022/10/15 02:17:58;;;;;;;0.50;0.50;;;;;;;13.05;94.27;100680.19;2073965;28;20057;-71
2022/10/15 02:19:08;;;;;;;0.40;0.40;;;;;;;13.05;94.35;100672.03;2077940;28;20058;-71
2022/10/15 02:20:14;;;;;;;0.50;0.50;;;;;;;13.02;93.91;100670.81;2074768;28;20420;-72
2022/10/15 02:21:22;;;;;;;0.40;0.40;;;;;;;13.02;93.64;100678.16;2077041;28;20080;-71
2022/10/15 02:22:31;;;;;;;0.40;0.40;;;;;;;13.00;93.85;100673.09;2076435;28;20512;-72
2022/10/15 02:23:40;;;;;;;0.50;0.50;;;;;;;13.00;93.85;100678.53;2075890;28;20049;-72
2022/10/15 02:24:47;;;;;;;0.45;0.45;;;;;;;12.98;94.08;100671.88;2073372;28;20057;-72
2022/10/15 02:25:59;;;;;;;0.40;0.40;;;;;;;12.95;94.00;100675.31;2063636;28;20054;-72
2022/10/15 02:27:02;;;;;;;0.50;0.50;;;;;;;12.94;93.96;100671.00;2065002;28;20080;-72
2022/10/15 02:28:07;;;;;;;0.50;0.50;;;;;;;12.94;93.93;100676.44;2071297;28;20583;-73
2022/10/15 02:29:13;;;;;;;0.50;0.50;;;;;;;12.93;93.84;100670.25;2073593;28;20438;-71
2022/10/15 02:30:17;;;;;;;0.50;0.50;;;;;;;12.93;94.17;100672.97;2066206;28;20142;-72
2022/10/15 02:31:21;;;;;;;0.47;0.47;;;;;;;12.94;94.13;100676.44;2066063;28;20054;-72
2022/10/15 02:32:25;;;;;;;0.50;0.50;;;;;;;12.91;93.50;100666.31;2072247;28;20513;-72
2022/10/15 02:33:32;;;;;;;0.50;0.50;;;;;;;12.89;93.53;100666.69;2075768;28;20124;-72
2022/10/15 02:34:36;;;;;;;0.50;0.50;;;;;;;12.90;93.52;100678.31;2078277;28;20046;-72
2022/10/15 02:35:39;;;;;;;0.50;0.50;;;;;;;12.86;94.18;100672.81;2074996;28;20049;-72
2022/10/15 02:36:43;;;;;;;0.40;0.40;;;;;;;12.86;93.57;100672.06;2076442;28;20167;-71
2022/10/15 02:37:49;;;;;;;0.50;0.50;;;;;;;12.86;94.04;100670.09;2067556;28;20069;-72
2022/10/15 02:38:57;;;;;;;0.40;0.40;;;;;;;12.83;93.79;100664.63;2071092;28;20081;-71
2022/10/15 02:39:59;;;;;;;0.50;0.50;;;;;;;12.81;93.80;100669.63;2070768;28;20057;-72
2022/10/15 02:41:04;;;;;;;0.50;0.50;;;;;;;12.82;93.68;100673.91;2074879;28;20049;-71
2022/10/15 02:42:06;;;;;;;0.50;0.50;;;;;;;12.80;93.95;100668.84;2074987;28;20046;-69
2022/10/15 02:43:12;;;;;;;0.50;0.50;;;;;;;12.82;94.11;100668.47;2075965;28;20509;-69
2022/10/15 02:44:14;;;;;;;0.50;0.50;;;;;;;12.80;93.83;100666.13;2072932;28;20590;-69
2022/10/15 02:45:17;;;;;;;0.50;0.50;;;;;;;12.81;94.09;100673.09;2071534;28;20050;-70
2022/10/15 02:46:20;;;;;;;0.55;0.55;;;;;;;12.81;93.88;100667.69;2070936;28;20510;-70
2022/10/15 02:47:23;;;;;;;0.40;0.40;;;;;;;12.82;94.29;100663.06;2076470;28;20057;-70
2022/10/15 02:48:26;;;;;;;0.40;0.40;;;;;;;12.82;93.62;100658.44;2072703;28;20103;-69
2022/10/15 02:49:30;;;;;;;0.40;0.40;;;;;;;12.82;94.34;100658.44;2076103;28;20057;-70
2022/10/15 02:50:32;;;;;;;0.50;0.50;;;;;;;12.82;93.73;100657.66;2064133;28;20054;-70
2022/10/15 02:51:36;;;;;;;0.40;0.40;;;;;;;12.82;93.69;100661.16;2064453;28;20054;-70
2022/10/15 02:52:38;;;;;;;0.50;0.50;;;;;;;12.81;93.74;100656.09;2074931;28;20066;-69
2022/10/15 02:53:41;;;;;;;0.50;0.50;;;;;;;12.80;94.42;100663.41;2077429;28;20709;-70
2022/10/15 02:54:43;;;;;;;0.40;0.40;;;;;;;12.79;93.99;100653.75;2068805;28;20097;-69
2022/10/15 02:55:46;;;;;;;0.50;0.50;;;;;;;12.81;94.16;100661.50;2071448;28;20061;-70
2022/10/15 02:56:48;;;;;;;0.50;0.50;;;;;;;12.80;93.94;100659.91;2063641;28;20046;-69
2022/10/15 02:57:53;;;;;;;0.50;0.50;;;;;;;12.79;93.91;100659.16;2056538;28;20133;-69
2022/10/15 02:58:55;;;;;;;0.50;0.50;;;;;;;12.79;94.18;100661.06;2068956;28;20523;-69
2022/10/15 02:59:58;;;;;;;0.50;0.50;;;;;;;12.80;94.34;100665.34;2051220;28;20070;-69
2022/10/15 03:01:01;;;;;;;0.40;0.40;;;;;;;12.81;94.40;100659.56;2055643;28;20069;-69
2022/10/15 03:02:04;;;;;;;0.50;0.50;;;;;;;12.82;94.52;100658.44;2056200;28;20062;-69
2022/10/15 03:03:06;;;;;;;0.40;0.40;;;;;;;12.83;94.45;100646.44;2054530;28;20424;-69
2022/10/15 03:04:09;;;;;;;0.50;0.50;;;;;;;12.83;94.32;100653.78;2055190;28;20582;-69
2022/10/15 03:05:13;;;;;;;0.40;0.40;;;;;;;12.84;94.27;100648.03;2069099;28;20129;-70
2022/10/15 03:06:17;;;;;;;0.45;0.45;;;;;;;12.85;94.42;100652.28;2062921;28;20054;-69
2022/10/15 03:07:21;;;;;;;0.50;0.50;;;;;;;12.86;94.36;100658.50;2066847;28;20046;-70
2022/10/15 03:08:24;;;;;;;0.50;0.50;;;;;;;12.83;94.12;100656.50;2071665;28;20042;-70
2022/10/15 03:09:26;;;;;;;0.40;0.40;;;;;;;12.84;94.58;100644.53;2056947;28;20121;-69
2022/10/15 03:10:29;;;;;;;0.50;0.50;;;;;;;12.86;93.97;100651.13;2063162;28;20054;-69
2022/10/15 03:11:31;;;;;;;0.40;0.40;;;;;;;12.85;94.25;100646.88;2077330;28;20061;-69
2022/10/15 03:12:36;;;;;;;0.50;0.50;;;;;;;12.85;94.52;100646.88;2073086;28;20081;-70
2022/10/15 03:13:40;;;;;;;0.50;0.50;;;;;;;12.86;94.55;100651.13;2075046;28;20461;-70
2022/10/15 03:14:42;;;;;;;0.40;0.40;;;;;;;12.87;94.32;100643.81;2077543;28;20432;-69
2022/10/15 03:15:44;;;;;;;0.50;0.50;;;;;;;12.87;93.96;100644.59;2078835;28;20045;-70
2022/10/15 03:16:49;;;;;;;0.50;0.50;;;;;;;12.88;94.11;100648.88;2074379;28;20140;-69
2022/10/15 03:17:51;;;;;;;0.50;0.50;;;;;;;12.87;94.35;100644.59;2069502;28;20050;-69
2022/10/15 03:18:55;;;;;;;0.40;0.40;;;;;;;12.89;93.89;100655.06;2065968;28;20081;-69
2022/10/15 03:19:57;;;;;;;0.40;0.40;;;;;;;12.90;94.14;100649.28;2073896;28;20064;-70
2022/10/15 03:21:02;;;;;;;0.50;0.50;;;;;;;12.91;93.81;100645.44;2063255;28;20077;-69
2022/10/15 03:22:04;;;;;;;0.45;0.45;;;;;;;12.89;94.47;100647.72;2070973;28;20049;-70
2022/10/15 03:23:17;;;;;;;0.40;0.40;;;;;;;12.89;94.34;100645.00;2070248;28;20924;-69
2022/10/15 03:24:19;;;;;;;0.40;0.40;;;;;;;12.90;94.09;100653.91;2068532;28;20061;-70
2022/10/15 03:25:22;;;;;;;0.50;0.50;;;;;;;12.90;94.47;100643.09;2051249;28;20118;-69
2022/10/15 03:26:33;;;;;;;0.40;0.40;;;;;;;12.89;94.40;100646.94;2057249;28;20046;-69
2022/10/15 03:27:36;;;;;;;0.50;0.50;;;;;;;12.90;94.08;100648.50;2063366;28;20517;-70
2022/10/15 03:28:45;;;;;;;0.50;0.50;;;;;;;12.89;94.30;100650.41;2062896;28;20050;-69
2022/10/15 03:29:56;;;;;;;0.50;0.50;;;;;;;12.90;94.42;100651.22;2057186;28;20097;-69
2022/10/15 03:31:01;;;;;;;0.40;0.40;;;;;;;12.90;94.46;100649.28;2073533;28;20473;-70
2022/10/15 03:32:05;;;;;;;0.50;0.50;;;;;;;12.91;94.13;100650.84;2072088;28;20085;-70
2022/10/15 03:33:07;;;;;;;0.50;0.50;;;;;;;12.90;93.86;100641.16;2070188;28;20058;-70
2022/10/15 03:34:10;;;;;;;0.50;0.50;;;;;;;12.92;93.82;100641.56;2076569;28;20512;-70
2022/10/15 03:35:12;;;;;;;0.50;0.50;;;;;;;12.88;94.29;100646.16;2064099;28;20481;-70
2022/10/15 03:36:16;;;;;;;0.40;0.40;;;;;;;12.91;93.75;100647.34;2066004;28;20165;-70
2022/10/15 03:37:18;;;;;;;0.45;0.45;;;;;;;12.92;93.56;100646.22;2072628;28;20141;-70
2022/10/15 03:38:22;;;;;;;0.45;0.45;;;;;;;12.92;94.32;100646.97;2071844;28;20050;-69
2022/10/15 03:39:26;;;;;;;0.50;0.50;;;;;;;12.90;94.50;100652.00;2072893;28;20129;-69
2022/10/15 03:40:31;;;;;;;0.40;0.40;;;;;;;12.92;93.82;100643.50;2077473;28;20083;-69
2022/10/15 03:41:46;;;;;;;0.45;0.45;;;;;;;12.90;94.33;100646.59;2073299;28;20124;-70
2022/10/15 03:42:56;;;;;;;0.50;0.50;;;;;;;12.91;94.54;100641.94;2072063;28;20053;-69
2022/10/15 03:44:00;;;;;;;0.50;0.50;;;;;;;12.92;94.38;100641.56;2074759;28;20522;-69
2022/10/15 03:45:05;;;;;;;0.50;0.50;;;;;;;12.93;94.29;100631.53;2074250;28;20054;-69
2022/10/15 03:46:07;;;;;;;0.50;0.50;;;;;;;12.93;93.93;100647.78;2072210;28;20050;-70
2022/10/15 03:47:14;;;;;;;0.40;0.40;;;;;;;12.93;93.60;100632.31;2063244;28;20077;-69
2022/10/15 03:48:21;;;;;;;0.40;0.40;;;;;;;12.95;93.61;100640.09;2059605;28;20133;-70
2022/10/15 03:49:28;;;;;;;0.43;0.43;;;;;;;12.94;94.01;100639.28;2069151;28;20077;-69
2022/10/15 03:50:30;;;;;;;0.50;0.50;;;;;;;12.95;94.15;100646.28;2077253;28;20084;-69
2022/10/15 03:51:38;;;;;;;0.40;0.40;;;;;;;12.96;93.60;100638.94;2065113;28;20050;-70
2022/10/15 03:52:45;;;;;;;0.40;0.40;;;;;;;12.95;93.87;100640.09;2064695;28;20129;-69
2022/10/15 03:53:48;;;;;;;0.50;0.50;;;;;;;12.95;93.69;100640.88;2071722;28;20413;-69
2022/10/15 03:54:50;;;;;;;0.40;0.40;;;;;;;12.95;94.27;100643.59;2080104;28;20122;-69
2022/10/15 03:55:55;;;;;;;0.40;0.40;;;;;;;12.95;93.88;100640.09;2076444;28;20100;-68
2022/10/15 03:56:57;;;;;;;0.50;0.50;;;;;;;12.95;93.62;100640.88;2076893;28;20057;-69
2022/10/15 03:58:06;;;;;;;0.40;0.40;;;;;;;12.96;93.69;100638.94;2077816;28;20049;-69
2022/10/15 03:59:09;;;;;;;0.40;0.40;;;;;;;12.97;94.13;100635.84;2072573;28;20054;-69
2022/10/15 04:00:14;;;;;;;0.50;0.50;;;;;;;12.97;94.04;100638.56;2078773;28;20049;-69
2022/10/15 04:01:17;;;;;;;0.50;0.50;;;;;;;12.98;93.64;100644.78;2077369;28;20097;-69
2022/10/15 04:02:20;;;;;;;0.40;0.40;;;;;;;12.98;93.73;100642.84;2077650;28;20057;-69
2022/10/15 04:03:22;;;;;;;0.40;0.40;;;;;;;12.98;93.83;100640.16;2077710;28;20056;-69
2022/10/15 04:04:25;;;;;;;0.40;0.40;;;;;;;12.99;93.36;100638.19;2059527;28;20411;-70
2022/10/15 04:05:27;;;;;;;0.40;0.40;;;;;;;12.99;94.13;100647.13;2050605;28;20050;-70
2022/10/15 04:06:37;;;;;;;0.40;0.40;;;;;;;12.99;93.30;100641.69;2064542;28;20049;-69
2022/10/15 04:07:42;;;;;;;0.40;0.40;;;;;;;12.99;93.88;100643.63;2069706;28;20054;-69
2022/10/15 04:08:49;;;;;;;0.40;0.40;;;;;;;13.00;93.53;100647.91;2062656;28;20118;-68
2022/10/15 04:09:58;;;;;;;0.40;0.40;;;;;;;12.97;94.12;100649.41;2054712;28;20058;-69
2022/10/15 04:11:12;;;;;;;0.50;0.50;;;;;;;12.98;93.94;100647.47;2052641;28;20426;-69
2022/10/15 04:12:15;;;;;;;0.40;0.40;;;;;;;12.98;93.39;100650.19;2064392;28;20050;-69
2022/10/15 04:13:18;;;;;;;0.40;0.40;;;;;;;12.99;93.84;100647.13;2065669;28;20054;-70
2022/10/15 04:14:19;;;;;;;0.47;0.47;;;;;;;12.99;93.53;100644.41;2066366;28;20137;-69
2022/10/15 04:15:22;;;;;;;0.50;0.50;;;;;;;13.00;93.65;100648.72;2070888;28;20105;-69
2022/10/15 04:16:29;;;;;;;0.50;0.50;;;;;;;12.99;92.91;100652.53;2070273;28;20265;-71
2022/10/15 04:17:32;;;;;;;0.50;0.50;;;;;;;12.98;93.29;100645.56;2066186;28;20054;-69
2022/10/15 04:18:34;;;;;;;0.40;0.40;;;;;;;12.98;93.74;100650.19;2072132;28;20413;-69
2022/10/15 04:19:37;;;;;;;0.50;0.50;;;;;;;12.98;93.26;100648.28;2059956;28;20102;-70
2022/10/15 04:20:41;;;;;;;0.50;0.50;;;;;;;12.98;93.50;100642.06;2057923;28;20510;-69
2022/10/15 04:21:49;;;;;;;0.40;0.40;;;;;;;12.95;93.36;100640.88;2063787;28;20085;-69
2022/10/15 04:23:04;;;;;;;0.50;0.50;;;;;;;12.92;93.00;100638.84;2065776;28;20054;-70
2022/10/15 04:24:07;;;;;;;0.50;0.50;;;;;;;12.93;93.42;100643.16;2071823;28;20172;-69
2022/10/15 04:25:13;;;;;;;0.50;0.50;;;;;;;12.92;93.65;100636.16;2057837;28;20518;-69
2022/10/15 04:26:15;;;;;;;0.50;0.50;;;;;;;12.91;93.52;100640.00;2061772;28;20493;-70
2022/10/15 04:27:19;;;;;;;0.50;0.50;;;;;;;12.92;93.09;100641.56;2071102;28;20128;-69
2022/10/15 04:28:20;;;;;;;0.50;0.50;;;;;;;12.91;93.12;100637.31;2071827;28;20046;-69
2022/10/15 04:29:24;;;;;;;0.45;0.45;;;;;;;12.90;93.34;100635.75;2063839;28;20791;-69
2022/10/15 04:30:27;;;;;;;0.50;0.50;;;;;;;12.89;93.56;100644.25;2059055;28;20542;-68
2022/10/15 04:31:34;;;;;;;0.50;0.50;;;;;;;12.87;93.41;100644.59;2059508;28;20054;-69
2022/10/15 04:32:36;;;;;;;0.43;0.43;;;;;;;12.88;93.20;100638.03;2059258;28;20085;-69
2022/10/15 04:33:39;;;;;;;0.50;0.50;;;;;;;12.89;92.98;100645.00;2069898;28;20057;-69
2022/10/15 04:34:41;;;;;;;0.50;0.50;;;;;;;12.87;93.65;100641.88;2056221;28;20086;-69
2022/10/15 04:35:44;;;;;;;0.50;0.50;;;;;;;12.88;93.75;100639.94;2047424;28;20142;-69
2022/10/15 04:36:51;;;;;;;0.50;0.50;;;;;;;12.88;93.17;100643.44;2048972;28;20055;-68
2022/10/15 04:37:57;;;;;;;0.50;0.50;;;;;;;12.87;93.60;100643.81;2063676;28;20081;-69
2022/10/15 04:39:00;;;;;;;0.40;0.40;;;;;;;12.87;93.13;100638.38;2068455;28;20054;-69
2022/10/15 04:40:17;;;;;;;0.40;0.40;;;;;;;12.84;93.43;100639.91;2057744;28;20195;-68
2022/10/15 04:41:19;;;;;;;0.50;0.50;;;;;;;12.83;93.33;100632.91;2056195;28;20407;-69
2022/10/15 04:42:30;;;;;;;0.50;0.50;;;;;;;12.81;93.85;100629.75;2064887;28;20042;-69
2022/10/15 04:43:32;;;;;;;0.50;0.50;;;;;;;12.82;93.79;100631.34;2067109;28;20062;-69
2022/10/15 04:44:39;;;;;;;0.50;0.50;;;;;;;12.83;93.11;100627.47;2068204;28;20061;-69
2022/10/15 04:45:41;;;;;;;0.50;0.50;;;;;;;12.83;92.94;100621.28;2062934;28;20066;-69
2022/10/15 04:46:44;;;;;;;0.50;0.50;;;;;;;12.83;93.15;100624.78;2068082;28;20053;-70
2022/10/15 04:48:01;;;;;;;0.50;0.50;;;;;;;12.80;93.09;100622.00;2054835;28;20059;-69
2022/10/15 04:49:07;;;;;;;0.57;0.57;;;;;;;12.80;93.23;100620.06;2039647;29;20052;-69
2022/10/15 04:50:12;;;;;;;0.50;0.50;;;;;;;12.76;93.14;100621.94;2043636;28;20055;-69
2022/10/15 04:51:34;;;;;;;0.50;0.50;;;;;;;12.70;93.60;100620.66;2059988;28;20050;-69
2022/10/15 04:52:54;;;;;;;0.50;0.50;;;;;;;12.64;93.84;100608.56;2055697;28;20558;-70
2022/10/15 04:54:00;;;;;;;0.55;0.55;;;;;;;12.64;93.89;100613.97;2050635;28;20395;-69
2022/10/15 04:55:04;;;;;;;0.50;0.50;;;;;;;12.64;93.38;100613.97;2063537;28;20053;-68
2022/10/15 04:56:10;;;;;;;0.50;0.50;;;;;;;12.64;93.75;100613.97;2064485;28;20057;-68
2022/10/15 04:57:12;;;;;;;0.60;0.60;;;;;;;12.62;93.38;100616.25;2071787;28;20058;-68
2022/10/15 04:58:15;;;;;;;0.50;0.50;;;;;;;12.63;94.08;100622.47;2060539;28;20046;-68
2022/10/15 04:59:18;;;;;;;0.60;0.60;;;;;;;12.63;93.37;100617.03;2063520;28;20046;-69
2022/10/15 05:00:41;;;;;;;0.50;0.50;;;;;;;12.62;94.01;100621.66;2064653;28;20053;-69
2022/10/15 05:02:07;;;;;;;0.60;0.60;;;;;;;12.60;93.74;100618.56;2056556;28;20604;-70
2022/10/15 05:03:11;;;;;;;0.50;0.50;;;;;;;12.62;93.78;100621.66;2055875;28;20055;-69
2022/10/15 05:04:20;;;;;;;0.50;0.50;;;;;;;12.63;93.54;100627.88;2069875;28;20050;-69
2022/10/15 05:05:24;;;;;;;0.50;0.50;;;;;;;12.64;93.78;100630.22;2069865;28;20061;-69
2022/10/15 05:06:35;;;;;;;0.50;0.50;;;;;;;12.62;94.24;100627.09;2058773;28;20089;-69
2022/10/15 05:07:50;;;;;;;0.40;0.40;;;;;;;12.63;93.96;100628.66;2066097;28;20038;-69
2022/10/15 05:08:53;;;;;;;0.50;0.50;;;;;;;12.65;93.95;100631.03;2077529;28;20077;-69